Current Weather

Horseshoe Bay Resort

Horseshoe Bay, Texas (KDZB)

Report from: Monday, September 26, 2022 11:55 PM UTC
Current time: Tuesday, September 27, 2022 12:26 AM UTC

Nearby weather
Weather history
Weather forecast

Temperature30.1°C (86.2°F)
Heat index28.4°C (83.1°F)
Dew point4.9°C (40.8°F)
Winds 8 kts (4.1 m/s, 9.2 mph) Northeast (40°)
Visibility10 mi. (16.1 km)
Clouds Sky clear
Altimeter30.06 in.Hg (1018 mB)
Relative humidity20 %
Density altitude1,704 ft. (519 m)
Remarks Fully automated report
Automated weather observing station with precipitation discriminator
Flight conditions Visual Meteorological Conditions
Raw dataKDZB 262355Z AUTO 04008KT 10SM CLR 30/05 A3006 RMK AO2 T03010049 10334 20301
An unhandled exception has occurred. See browser dev tools for details. Reload 🗙